sensor_id;sensor_type;location;lat;lon;timestamp;P1;durP1;ratioP1;P2;durP2;ratioP2
11763;SDS011;5939;56.522;14.950;2022-08-19T00:01:21;11.97;;;10.80;;
11763;SDS011;5939;56.522;14.950;2022-08-19T00:03:47;12.17;;;11.00;;
11763;SDS011;5939;56.522;14.950;2022-08-19T00:06:14;11.57;;;10.60;;
11763;SDS011;5939;56.522;14.950;2022-08-19T00:08:40;11.37;;;10.33;;
11763;SDS011;5939;56.522;14.950;2022-08-19T00:11:06;11.90;;;10.77;;
11763;SDS011;5939;56.522;14.950;2022-08-19T00:13:32;11.57;;;10.57;;
11763;SDS011;5939;56.522;14.950;2022-08-19T00:15:59;10.97;;;9.97;;
11763;SDS011;5939;56.522;14.950;2022-08-19T00:18:25;11.93;;;10.93;;
11763;SDS011;5939;56.522;14.950;2022-08-19T00:20:51;11.67;;;10.47;;
11763;SDS011;5939;56.522;14.950;2022-08-19T00:23:17;11.83;;;10.67;;
11763;SDS011;5939;56.522;14.950;2022-08-19T00:25:43;11.93;;;10.73;;
11763;SDS011;5939;56.522;14.950;2022-08-19T00:28:09;11.73;;;10.73;;
11763;SDS011;5939;56.522;14.950;2022-08-19T00:30:35;11.37;;;10.37;;
11763;SDS011;5939;56.522;14.950;2022-08-19T00:33:01;11.60;;;10.40;;
11763;SDS011;5939;56.522;14.950;2022-08-19T00:35:27;12.00;;;10.80;;
11763;SDS011;5939;56.522;14.950;2022-08-19T00:37:53;11.57;;;10.57;;
11763;SDS011;5939;56.522;14.950;2022-08-19T00:40:20;11.50;;;10.53;;
11763;SDS011;5939;56.522;14.950;2022-08-19T00:42:45;12.00;;;10.67;;
11763;SDS011;5939;56.522;14.950;2022-08-19T00:45:13;12.27;;;11.07;;
11763;SDS011;5939;56.522;14.950;2022-08-19T00:47:42;11.60;;;10.50;;
11763;SDS011;5939;56.522;14.950;2022-08-19T00:50:09;12.00;;;11.00;;
11763;SDS011;5939;56.522;14.950;2022-08-19T00:52:38;10.70;;;9.80;;
11763;SDS011;5939;56.522;14.950;2022-08-19T00:55:10;11.80;;;10.70;;
11763;SDS011;5939;56.522;14.950;2022-08-19T00:57:41;11.77;;;10.77;;
11763;SDS011;5939;56.522;14.950;2022-08-19T01:00:12;11.37;;;10.30;;
11763;SDS011;5939;56.522;14.950;2022-08-19T01:02:40;10.50;;;9.60;;
11763;SDS011;5939;56.522;14.950;2022-08-19T01:05:08;11.20;;;10.20;;
11763;SDS011;5939;56.522;14.950;2022-08-19T01:07:37;10.87;;;9.90;;
11763;SDS011;5939;56.522;14.950;2022-08-19T01:10:05;11.07;;;10.07;;
11763;SDS011;5939;56.522;14.950;2022-08-19T01:12:33;10.90;;;10.00;;
11763;SDS011;5939;56.522;14.950;2022-08-19T01:14:59;10.13;;;9.33;;
11763;SDS011;5939;56.522;14.950;2022-08-19T01:17:25;10.80;;;9.77;;
11763;SDS011;5939;56.522;14.950;2022-08-19T01:19:51;10.53;;;9.53;;
11763;SDS011;5939;56.522;14.950;2022-08-19T01:22:20;10.23;;;9.23;;
11763;SDS011;5939;56.522;14.950;2022-08-19T01:25:00;10.20;;;9.40;;
11763;SDS011;5939;56.522;14.950;2022-08-19T01:27:26;10.60;;;9.70;;
11763;SDS011;5939;56.522;14.950;2022-08-19T01:29:52;10.10;;;9.27;;
11763;SDS011;5939;56.522;14.950;2022-08-19T01:32:17;10.73;;;9.73;;
11763;SDS011;5939;56.522;14.950;2022-08-19T01:34:45;10.30;;;9.30;;
11763;SDS011;5939;56.522;14.950;2022-08-19T01:37:12;10.30;;;9.30;;
11763;SDS011;5939;56.522;14.950;2022-08-19T01:39:39;9.93;;;9.03;;
11763;SDS011;5939;56.522;14.950;2022-08-19T01:42:06;10.37;;;9.37;;
11763;SDS011;5939;56.522;14.950;2022-08-19T01:44:36;9.73;;;8.80;;
11763;SDS011;5939;56.522;14.950;2022-08-19T01:47:02;9.77;;;8.90;;
11763;SDS011;5939;56.522;14.950;2022-08-19T01:49:28;10.13;;;9.23;;
11763;SDS011;5939;56.522;14.950;2022-08-19T01:51:54;9.90;;;9.10;;
11763;SDS011;5939;56.522;14.950;2022-08-19T01:54:21;10.37;;;9.47;;
11763;SDS011;5939;56.522;14.950;2022-08-19T01:56:48;10.33;;;9.40;;
11763;SDS011;5939;56.522;14.950;2022-08-19T01:59:17;10.17;;;9.20;;
11763;SDS011;5939;56.522;14.950;2022-08-19T02:01:45;10.07;;;9.23;;
11763;SDS011;5939;56.522;14.950;2022-08-19T02:04:11;10.10;;;9.17;;
11763;SDS011;5939;56.522;14.950;2022-08-19T02:06:37;10.53;;;9.63;;
11763;SDS011;5939;56.522;14.950;2022-08-19T02:09:04;10.27;;;9.30;;
11763;SDS011;5939;56.522;14.950;2022-08-19T02:11:31;10.03;;;9.23;;
11763;SDS011;5939;56.522;14.950;2022-08-19T02:13:59;9.83;;;8.87;;
11763;SDS011;5939;56.522;14.950;2022-08-19T02:16:29;10.50;;;9.50;;
11763;SDS011;5939;56.522;14.950;2022-08-19T02:18:55;10.10;;;9.10;;
11763;SDS011;5939;56.522;14.950;2022-08-19T02:21:22;10.20;;;9.30;;
11763;SDS011;5939;56.522;14.950;2022-08-19T02:23:48;9.73;;;8.83;;
11763;SDS011;5939;56.522;14.950;2022-08-19T02:26:15;9.63;;;8.73;;
11763;SDS011;5939;56.522;14.950;2022-08-19T02:28:41;9.97;;;9.07;;
11763;SDS011;5939;56.522;14.950;2022-08-19T02:31:12;9.60;;;8.70;;
11763;SDS011;5939;56.522;14.950;2022-08-19T02:33:40;9.93;;;9.03;;
11763;SDS011;5939;56.522;14.950;2022-08-19T02:36:06;10.10;;;9.10;;
11763;SDS011;5939;56.522;14.950;2022-08-19T02:38:33;9.87;;;8.97;;
11763;SDS011;5939;56.522;14.950;2022-08-19T02:41:02;10.13;;;9.10;;
11763;SDS011;5939;56.522;14.950;2022-08-19T02:43:30;10.07;;;9.03;;
11763;SDS011;5939;56.522;14.950;2022-08-19T02:45:56;9.80;;;8.90;;
11763;SDS011;5939;56.522;14.950;2022-08-19T02:48:23;9.27;;;8.47;;
11763;SDS011;5939;56.522;14.950;2022-08-19T02:50:51;10.73;;;9.67;;
11763;SDS011;5939;56.522;14.950;2022-08-19T02:53:23;9.90;;;9.00;;
11763;SDS011;5939;56.522;14.950;2022-08-19T02:55:51;10.57;;;9.57;;
11763;SDS011;5939;56.522;14.950;2022-08-19T02:58:18;9.30;;;8.40;;
11763;SDS011;5939;56.522;14.950;2022-08-19T03:00:53;9.87;;;8.90;;
11763;SDS011;5939;56.522;14.950;2022-08-19T03:03:20;10.47;;;9.57;;
11763;SDS011;5939;56.522;14.950;2022-08-19T03:05:46;9.73;;;8.83;;
11763;SDS011;5939;56.522;14.950;2022-08-19T03:08:12;9.67;;;8.77;;
11763;SDS011;5939;56.522;14.950;2022-08-19T03:10:43;9.67;;;8.77;;
11763;SDS011;5939;56.522;14.950;2022-08-19T03:13:14;9.67;;;8.70;;
11763;SDS011;5939;56.522;14.950;2022-08-19T03:15:45;9.27;;;8.40;;
11763;SDS011;5939;56.522;14.950;2022-08-19T03:18:12;9.73;;;8.83;;
11763;SDS011;5939;56.522;14.950;2022-08-19T03:20:45;9.80;;;8.90;;
11763;SDS011;5939;56.522;14.950;2022-08-19T03:23:13;10.17;;;9.20;;
11763;SDS011;5939;56.522;14.950;2022-08-19T03:25:40;10.17;;;9.17;;
11763;SDS011;5939;56.522;14.950;2022-08-19T03:28:09;9.80;;;8.90;;
11763;SDS011;5939;56.522;14.950;2022-08-19T03:30:39;9.87;;;8.97;;
11763;SDS011;5939;56.522;14.950;2022-08-19T03:33:06;9.43;;;8.63;;
11763;SDS011;5939;56.522;14.950;2022-08-19T03:35:33;9.67;;;8.70;;
11763;SDS011;5939;56.522;14.950;2022-08-19T03:38:01;8.70;;;7.90;;
11763;SDS011;5939;56.522;14.950;2022-08-19T03:40:28;8.63;;;7.83;;
11763;SDS011;5939;56.522;14.950;2022-08-19T03:42:55;9.43;;;8.63;;
11763;SDS011;5939;56.522;14.950;2022-08-19T03:45:21;8.57;;;7.87;;
11763;SDS011;5939;56.522;14.950;2022-08-19T03:47:47;8.83;;;8.03;;
11763;SDS011;5939;56.522;14.950;2022-08-19T03:50:13;8.83;;;8.13;;
11763;SDS011;5939;56.522;14.950;2022-08-19T03:52:39;9.50;;;8.60;;
11763;SDS011;5939;56.522;14.950;2022-08-19T03:55:05;8.90;;;8.10;;
11763;SDS011;5939;56.522;14.950;2022-08-19T03:57:32;9.90;;;8.90;;
11763;SDS011;5939;56.522;14.950;2022-08-19T03:59:59;9.17;;;8.37;;
11763;SDS011;5939;56.522;14.950;2022-08-19T04:02:25;9.30;;;8.50;;
11763;SDS011;5939;56.522;14.950;2022-08-19T04:04:52;9.83;;;8.93;;
11763;SDS011;5939;56.522;14.950;2022-08-19T04:07:19;8.90;;;8.20;;
11763;SDS011;5939;56.522;14.950;2022-08-19T04:09:46;9.60;;;8.50;;
11763;SDS011;5939;56.522;14.950;2022-08-19T04:12:13;8.87;;;8.07;;
11763;SDS011;5939;56.522;14.950;2022-08-19T04:14:40;9.27;;;8.40;;
11763;SDS011;5939;56.522;14.950;2022-08-19T04:17:06;9.20;;;8.30;;
11763;SDS011;5939;56.522;14.950;2022-08-19T04:19:32;9.37;;;8.47;;
11763;SDS011;5939;56.522;14.950;2022-08-19T04:21:59;8.10;;;7.40;;
11763;SDS011;5939;56.522;14.950;2022-08-19T04:24:25;8.60;;;7.90;;
11763;SDS011;5939;56.522;14.950;2022-08-19T04:26:51;8.13;;;7.43;;
11763;SDS011;5939;56.522;14.950;2022-08-19T04:29:18;8.60;;;7.90;;
11763;SDS011;5939;56.522;14.950;2022-08-19T04:31:47;8.30;;;7.50;;
11763;SDS011;5939;56.522;14.950;2022-08-19T04:34:14;9.40;;;8.57;;
11763;SDS011;5939;56.522;14.950;2022-08-19T04:36:42;8.60;;;7.77;;
11763;SDS011;5939;56.522;14.950;2022-08-19T04:39:16;8.57;;;7.80;;
11763;SDS011;5939;56.522;14.950;2022-08-19T04:41:44;8.27;;;7.47;;
11763;SDS011;5939;56.522;14.950;2022-08-19T04:44:29;8.20;;;7.60;;
11763;SDS011;5939;56.522;14.950;2022-08-19T04:46:56;8.40;;;7.60;;
11763;SDS011;5939;56.522;14.950;2022-08-19T04:49:22;8.83;;;8.13;;
11763;SDS011;5939;56.522;14.950;2022-08-19T04:51:49;9.03;;;8.23;;
11763;SDS011;5939;56.522;14.950;2022-08-19T04:54:19;8.80;;;8.00;;
11763;SDS011;5939;56.522;14.950;2022-08-19T04:56:48;8.53;;;7.73;;
11763;SDS011;5939;56.522;14.950;2022-08-19T04:59:15;8.60;;;7.70;;
11763;SDS011;5939;56.522;14.950;2022-08-19T05:01:41;8.90;;;8.10;;
11763;SDS011;5939;56.522;14.950;2022-08-19T05:04:07;8.10;;;7.40;;
11763;SDS011;5939;56.522;14.950;2022-08-19T05:06:34;8.73;;;7.83;;
11763;SDS011;5939;56.522;14.950;2022-08-19T05:09:01;8.90;;;8.10;;
11763;SDS011;5939;56.522;14.950;2022-08-19T05:11:29;9.40;;;8.10;;
11763;SDS011;5939;56.522;14.950;2022-08-19T05:13:56;8.13;;;7.33;;
11763;SDS011;5939;56.522;14.950;2022-08-19T05:16:22;8.07;;;7.37;;
11763;SDS011;5939;56.522;14.950;2022-08-19T05:18:50;8.00;;;7.27;;
11763;SDS011;5939;56.522;14.950;2022-08-19T05:21:34;8.27;;;7.57;;
11763;SDS011;5939;56.522;14.950;2022-08-19T05:24:19;8.30;;;7.60;;
11763;SDS011;5939;56.522;14.950;2022-08-19T05:26:47;8.60;;;7.37;;
11763;SDS011;5939;56.522;14.950;2022-08-19T05:29:16;7.90;;;7.20;;
11763;SDS011;5939;56.522;14.950;2022-08-19T05:31:44;8.23;;;7.53;;
11763;SDS011;5939;56.522;14.950;2022-08-19T05:34:10;8.33;;;7.53;;
11763;SDS011;5939;56.522;14.950;2022-08-19T05:36:37;8.50;;;7.80;;
11763;SDS011;5939;56.522;14.950;2022-08-19T05:39:09;8.47;;;7.73;;
11763;SDS011;5939;56.522;14.950;2022-08-19T05:41:41;7.97;;;7.27;;
11763;SDS011;5939;56.522;14.950;2022-08-19T05:44:07;8.47;;;7.70;;
11763;SDS011;5939;56.522;14.950;2022-08-19T05:46:35;7.90;;;7.20;;
11763;SDS011;5939;56.522;14.950;2022-08-19T05:49:03;7.93;;;7.23;;
11763;SDS011;5939;56.522;14.950;2022-08-19T05:51:30;8.27;;;7.57;;
11763;SDS011;5939;56.522;14.950;2022-08-19T05:53:57;8.60;;;7.80;;
11763;SDS011;5939;56.522;14.950;2022-08-19T05:56:23;8.03;;;7.33;;
11763;SDS011;5939;56.522;14.950;2022-08-19T05:58:49;8.23;;;7.43;;
11763;SDS011;5939;56.522;14.950;2022-08-19T06:01:15;8.10;;;7.40;;
11763;SDS011;5939;56.522;14.950;2022-08-19T06:03:43;8.20;;;7.50;;
11763;SDS011;5939;56.522;14.950;2022-08-19T06:06:10;8.87;;;8.17;;
11763;SDS011;5939;56.522;14.950;2022-08-19T06:08:37;8.07;;;7.37;;
11763;SDS011;5939;56.522;14.950;2022-08-19T06:13:42;8.73;;;8.03;;
11763;SDS011;5939;56.522;14.950;2022-08-19T06:16:12;9.37;;;8.47;;
11763;SDS011;5939;56.522;14.950;2022-08-19T06:18:37;9.33;;;8.30;;
11763;SDS011;5939;56.522;14.950;2022-08-19T06:21:03;8.83;;;8.10;;
11763;SDS011;5939;56.522;14.950;2022-08-19T06:23:29;9.00;;;8.20;;
11763;SDS011;5939;56.522;14.950;2022-08-19T06:25:55;8.80;;;8.03;;
11763;SDS011;5939;56.522;14.950;2022-08-19T06:28:21;9.20;;;8.40;;
11763;SDS011;5939;56.522;14.950;2022-08-19T06:30:48;9.20;;;8.37;;
11763;SDS011;5939;56.522;14.950;2022-08-19T06:33:15;9.33;;;8.53;;
11763;SDS011;5939;56.522;14.950;2022-08-19T06:35:41;9.27;;;8.37;;
11763;SDS011;5939;56.522;14.950;2022-08-19T06:38:06;10.20;;;9.07;;
11763;SDS011;5939;56.522;14.950;2022-08-19T06:40:34;9.40;;;8.30;;
11763;SDS011;5939;56.522;14.950;2022-08-19T06:43:01;9.67;;;8.77;;
11763;SDS011;5939;56.522;14.950;2022-08-19T06:45:27;9.70;;;8.73;;
11763;SDS011;5939;56.522;14.950;2022-08-19T06:47:53;9.87;;;8.83;;
11763;SDS011;5939;56.522;14.950;2022-08-19T06:50:21;9.00;;;8.30;;
11763;SDS011;5939;56.522;14.950;2022-08-19T06:52:47;9.47;;;8.67;;
11763;SDS011;5939;56.522;14.950;2022-08-19T06:55:13;9.43;;;8.53;;
11763;SDS011;5939;56.522;14.950;2022-08-19T06:57:40;9.73;;;8.73;;
11763;SDS011;5939;56.522;14.950;2022-08-19T07:00:07;9.53;;;8.57;;
11763;SDS011;5939;56.522;14.950;2022-08-19T07:02:40;10.23;;;9.23;;
11763;SDS011;5939;56.522;14.950;2022-08-19T07:05:06;9.50;;;8.70;;
11763;SDS011;5939;56.522;14.950;2022-08-19T07:07:32;9.57;;;8.67;;
11763;SDS011;5939;56.522;14.950;2022-08-19T07:09:59;8.93;;;8.20;;
11763;SDS011;5939;56.522;14.950;2022-08-19T07:12:26;9.40;;;8.60;;
11763;SDS011;5939;56.522;14.950;2022-08-19T07:14:53;9.50;;;8.63;;
11763;SDS011;5939;56.522;14.950;2022-08-19T07:17:19;9.00;;;8.20;;
11763;SDS011;5939;56.522;14.950;2022-08-19T07:19:45;10.40;;;9.40;;
11763;SDS011;5939;56.522;14.950;2022-08-19T07:22:10;9.60;;;8.70;;
11763;SDS011;5939;56.522;14.950;2022-08-19T07:24:36;9.80;;;8.80;;
11763;SDS011;5939;56.522;14.950;2022-08-19T07:27:03;10.10;;;9.17;;
11763;SDS011;5939;56.522;14.950;2022-08-19T07:29:30;10.00;;;9.00;;
11763;SDS011;5939;56.522;14.950;2022-08-19T07:31:58;10.13;;;9.10;;
11763;SDS011;5939;56.522;14.950;2022-08-19T07:34:26;10.37;;;9.33;;
11763;SDS011;5939;56.522;14.950;2022-08-19T07:36:54;9.97;;;8.93;;
11763;SDS011;5939;56.522;14.950;2022-08-19T07:39:25;10.53;;;9.53;;
11763;SDS011;5939;56.522;14.950;2022-08-19T07:41:53;10.90;;;9.80;;
11763;SDS011;5939;56.522;14.950;2022-08-19T07:44:20;10.00;;;9.20;;
11763;SDS011;5939;56.522;14.950;2022-08-19T07:46:47;10.77;;;9.73;;
11763;SDS011;5939;56.522;14.950;2022-08-19T07:49:17;10.67;;;9.77;;
11763;SDS011;5939;56.522;14.950;2022-08-19T07:51:47;10.23;;;9.23;;
11763;SDS011;5939;56.522;14.950;2022-08-19T07:54:27;10.20;;;9.10;;
11763;SDS011;5939;56.522;14.950;2022-08-19T07:56:55;10.47;;;9.53;;
11763;SDS011;5939;56.522;14.950;2022-08-19T07:59:22;10.70;;;9.70;;
11763;SDS011;5939;56.522;14.950;2022-08-19T08:01:48;10.53;;;9.53;;
11763;SDS011;5939;56.522;14.950;2022-08-19T08:04:15;10.77;;;9.87;;
11763;SDS011;5939;56.522;14.950;2022-08-19T08:06:59;10.80;;;9.33;;
11763;SDS011;5939;56.522;14.950;2022-08-19T08:09:43;10.47;;;9.33;;
11763;SDS011;5939;56.522;14.950;2022-08-19T08:12:20;10.87;;;9.77;;
11763;SDS011;5939;56.522;14.950;2022-08-19T08:14:50;10.53;;;8.80;;
11763;SDS011;5939;56.522;14.950;2022-08-19T08:17:18;10.43;;;9.43;;
11763;SDS011;5939;56.522;14.950;2022-08-19T08:19:45;10.87;;;9.87;;
11763;SDS011;5939;56.522;14.950;2022-08-19T08:22:14;9.63;;;8.83;;
11763;SDS011;5939;56.522;14.950;2022-08-19T08:25:01;9.60;;;8.70;;
11763;SDS011;5939;56.522;14.950;2022-08-19T08:27:38;10.37;;;9.37;;
11763;SDS011;5939;56.522;14.950;2022-08-19T08:30:06;11.90;;;9.87;;
11763;SDS011;5939;56.522;14.950;2022-08-19T08:32:37;8.70;;;7.87;;
11763;SDS011;5939;56.522;14.950;2022-08-19T08:35:07;10.27;;;9.47;;
11763;SDS011;5939;56.522;14.950;2022-08-19T08:37:36;10.73;;;9.73;;
11763;SDS011;5939;56.522;14.950;2022-08-19T08:40:06;10.00;;;9.07;;
11763;SDS011;5939;56.522;14.950;2022-08-19T08:43:03;9.60;;;8.90;;
11763;SDS011;5939;56.522;14.950;2022-08-19T08:45:52;10.33;;;9.17;;
11763;SDS011;5939;56.522;14.950;2022-08-19T08:48:56;9.97;;;9.07;;
11763;SDS011;5939;56.522;14.950;2022-08-19T08:51:59;10.50;;;9.43;;
11763;SDS011;5939;56.522;14.950;2022-08-19T08:54:41;10.47;;;9.40;;
11763;SDS011;5939;56.522;14.950;2022-08-19T08:57:14;9.87;;;8.87;;
11763;SDS011;5939;56.522;14.950;2022-08-19T08:59:45;9.77;;;8.77;;
11763;SDS011;5939;56.522;14.950;2022-08-19T09:02:15;11.50;;;9.40;;
11763;SDS011;5939;56.522;14.950;2022-08-19T09:04:42;9.80;;;8.90;;
11763;SDS011;5939;56.522;14.950;2022-08-19T09:12:53;10.03;;;9.13;;
11763;SDS011;5939;56.522;14.950;2022-08-19T09:15:40;10.03;;;9.07;;
11763;SDS011;5939;56.522;14.950;2022-08-19T09:18:10;10.63;;;9.73;;
11763;SDS011;5939;56.522;14.950;2022-08-19T09:20:36;10.43;;;9.53;;
11763;SDS011;5939;56.522;14.950;2022-08-19T09:23:02;10.57;;;9.67;;
11763;SDS011;5939;56.522;14.950;2022-08-19T09:25:29;9.40;;;8.40;;
11763;SDS011;5939;56.522;14.950;2022-08-19T09:27:56;10.13;;;9.13;;
11763;SDS011;5939;56.522;14.950;2022-08-19T09:30:23;9.70;;;8.80;;
11763;SDS011;5939;56.522;14.950;2022-08-19T09:32:52;9.77;;;8.90;;
11763;SDS011;5939;56.522;14.950;2022-08-19T09:35:19;10.93;;;9.83;;
11763;SDS011;5939;56.522;14.950;2022-08-19T09:37:49;10.27;;;9.27;;
11763;SDS011;5939;56.522;14.950;2022-08-19T09:40:16;9.73;;;8.83;;
11763;SDS011;5939;56.522;14.950;2022-08-19T09:42:43;9.97;;;9.17;;
11763;SDS011;5939;56.522;14.950;2022-08-19T09:45:11;10.07;;;9.13;;
11763;SDS011;5939;56.522;14.950;2022-08-19T09:47:37;10.57;;;9.67;;
11763;SDS011;5939;56.522;14.950;2022-08-19T09:50:04;9.17;;;8.27;;
11763;SDS011;5939;56.522;14.950;2022-08-19T09:52:31;10.13;;;9.27;;
11763;SDS011;5939;56.522;14.950;2022-08-19T09:54:58;10.07;;;9.07;;
11763;SDS011;5939;56.522;14.950;2022-08-19T09:57:23;9.63;;;8.73;;
11763;SDS011;5939;56.522;14.950;2022-08-19T09:59:49;9.80;;;8.90;;
11763;SDS011;5939;56.522;14.950;2022-08-19T10:02:15;10.13;;;9.13;;
11763;SDS011;5939;56.522;14.950;2022-08-19T10:04:40;9.90;;;9.00;;
11763;SDS011;5939;56.522;14.950;2022-08-19T10:07:24;10.40;;;9.40;;
11763;SDS011;5939;56.522;14.950;2022-08-19T10:09:50;10.47;;;9.33;;
11763;SDS011;5939;56.522;14.950;2022-08-19T10:12:16;9.83;;;8.93;;
11763;SDS011;5939;56.522;14.950;2022-08-19T10:14:41;9.77;;;8.93;;
11763;SDS011;5939;56.522;14.950;2022-08-19T10:17:07;9.37;;;8.57;;
11763;SDS011;5939;56.522;14.950;2022-08-19T10:19:33;10.03;;;9.10;;
11763;SDS011;5939;56.522;14.950;2022-08-19T10:22:06;10.07;;;9.17;;
11763;SDS011;5939;56.522;14.950;2022-08-19T10:24:33;9.73;;;8.73;;
11763;SDS011;5939;56.522;14.950;2022-08-19T10:27:00;9.43;;;8.53;;
11763;SDS011;5939;56.522;14.950;2022-08-19T10:29:28;9.80;;;8.90;;
11763;SDS011;5939;56.522;14.950;2022-08-19T10:31:55;9.30;;;8.50;;
11763;SDS011;5939;56.522;14.950;2022-08-19T10:34:22;9.20;;;8.27;;
11763;SDS011;5939;56.522;14.950;2022-08-19T10:36:48;9.37;;;8.67;;
11763;SDS011;5939;56.522;14.950;2022-08-19T10:39:14;9.30;;;8.50;;
11763;SDS011;5939;56.522;14.950;2022-08-19T10:41:40;10.60;;;8.97;;
11763;SDS011;5939;56.522;14.950;2022-08-19T10:44:10;9.93;;;8.53;;
11763;SDS011;5939;56.522;14.950;2022-08-19T10:46:38;9.27;;;8.43;;
11763;SDS011;5939;56.522;14.950;2022-08-19T10:49:07;9.30;;;8.60;;
11763;SDS011;5939;56.522;14.950;2022-08-19T10:51:34;10.87;;;8.83;;
11763;SDS011;5939;56.522;14.950;2022-08-19T10:54:19;9.70;;;8.67;;
11763;SDS011;5939;56.522;14.950;2022-08-19T10:56:45;9.90;;;8.97;;
11763;SDS011;5939;56.522;14.950;2022-08-19T10:59:18;9.93;;;9.03;;
11763;SDS011;5939;56.522;14.950;2022-08-19T11:01:53;10.17;;;9.17;;
11763;SDS011;5939;56.522;14.950;2022-08-19T11:04:23;9.90;;;8.70;;
11763;SDS011;5939;56.522;14.950;2022-08-19T11:06:49;9.67;;;8.80;;
11763;SDS011;5939;56.522;14.950;2022-08-19T11:09:15;10.03;;;9.03;;
11763;SDS011;5939;56.522;14.950;2022-08-19T11:11:43;10.40;;;9.40;;
11763;SDS011;5939;56.522;14.950;2022-08-19T11:14:12;9.67;;;8.60;;
11763;SDS011;5939;56.522;14.950;2022-08-19T11:16:41;9.97;;;9.07;;
11763;SDS011;5939;56.522;14.950;2022-08-19T11:19:08;10.03;;;9.03;;
11763;SDS011;5939;56.522;14.950;2022-08-19T11:21:37;10.10;;;9.20;;
11763;SDS011;5939;56.522;14.950;2022-08-19T11:24:08;10.10;;;9.10;;
11763;SDS011;5939;56.522;14.950;2022-08-19T11:26:36;10.13;;;9.27;;
11763;SDS011;5939;56.522;14.950;2022-08-19T11:29:03;10.50;;;9.60;;
11763;SDS011;5939;56.522;14.950;2022-08-19T11:31:31;10.33;;;9.03;;
11763;SDS011;5939;56.522;14.950;2022-08-19T11:33:59;9.40;;;8.60;;
11763;SDS011;5939;56.522;14.950;2022-08-19T11:36:26;9.93;;;8.83;;
11763;SDS011;5939;56.522;14.950;2022-08-19T11:38:53;10.17;;;9.30;;
11763;SDS011;5939;56.522;14.950;2022-08-19T11:41:20;9.97;;;9.00;;
11763;SDS011;5939;56.522;14.950;2022-08-19T11:43:48;9.97;;;9.17;;
11763;SDS011;5939;56.522;14.950;2022-08-19T11:46:19;10.47;;;9.43;;
11763;SDS011;5939;56.522;14.950;2022-08-19T11:48:45;10.27;;;9.37;;
11763;SDS011;5939;56.522;14.950;2022-08-19T11:51:13;10.30;;;9.30;;
11763;SDS011;5939;56.522;14.950;2022-08-19T11:53:39;10.57;;;9.50;;
11763;SDS011;5939;56.522;14.950;2022-08-19T11:56:06;10.17;;;9.20;;
11763;SDS011;5939;56.522;14.950;2022-08-19T11:58:33;9.87;;;8.87;;
11763;SDS011;5939;56.522;14.950;2022-08-19T12:00:59;9.90;;;9.00;;
11763;SDS011;5939;56.522;14.950;2022-08-19T12:03:25;10.47;;;9.47;;
11763;SDS011;5939;56.522;14.950;2022-08-19T12:05:52;10.67;;;9.77;;
11763;SDS011;5939;56.522;14.950;2022-08-19T12:08:18;9.83;;;9.03;;
11763;SDS011;5939;56.522;14.950;2022-08-19T12:10:44;11.23;;;9.80;;
11763;SDS011;5939;56.522;14.950;2022-08-19T12:13:10;10.43;;;9.43;;
11763;SDS011;5939;56.522;14.950;2022-08-19T12:15:40;10.73;;;9.83;;
11763;SDS011;5939;56.522;14.950;2022-08-19T12:18:07;10.27;;;9.20;;
11763;SDS011;5939;56.522;14.950;2022-08-19T12:20:38;10.93;;;9.30;;
11763;SDS011;5939;56.522;14.950;2022-08-19T12:23:06;11.00;;;9.17;;
11763;SDS011;5939;56.522;14.950;2022-08-19T12:25:33;9.67;;;8.83;;
11763;SDS011;5939;56.522;14.950;2022-08-19T12:27:59;10.57;;;9.57;;
11763;SDS011;5939;56.522;14.950;2022-08-19T12:30:25;11.30;;;10.10;;
11763;SDS011;5939;56.522;14.950;2022-08-19T12:32:51;11.13;;;10.03;;
11763;SDS011;5939;56.522;14.950;2022-08-19T12:35:17;10.63;;;9.83;;
11763;SDS011;5939;56.522;14.950;2022-08-19T12:37:45;10.83;;;9.83;;
11763;SDS011;5939;56.522;14.950;2022-08-19T12:40:12;11.63;;;10.30;;
11763;SDS011;5939;56.522;14.950;2022-08-19T12:42:39;10.30;;;9.23;;
11763;SDS011;5939;56.522;14.950;2022-08-19T12:45:09;10.77;;;9.50;;
11763;SDS011;5939;56.522;14.950;2022-08-19T12:47:36;10.80;;;9.87;;
11763;SDS011;5939;56.522;14.950;2022-08-19T12:50:02;10.47;;;9.57;;
11763;SDS011;5939;56.522;14.950;2022-08-19T12:52:29;10.37;;;9.37;;
11763;SDS011;5939;56.522;14.950;2022-08-19T12:54:55;10.40;;;9.40;;
11763;SDS011;5939;56.522;14.950;2022-08-19T12:57:23;10.33;;;9.53;;
11763;SDS011;5939;56.522;14.950;2022-08-19T12:59:53;10.33;;;9.33;;
11763;SDS011;5939;56.522;14.950;2022-08-19T13:02:19;10.97;;;9.90;;
11763;SDS011;5939;56.522;14.950;2022-08-19T13:04:46;10.90;;;9.87;;
11763;SDS011;5939;56.522;14.950;2022-08-19T13:07:11;10.53;;;9.63;;
11763;SDS011;5939;56.522;14.950;2022-08-19T13:09:37;10.50;;;9.47;;
11763;SDS011;5939;56.522;14.950;2022-08-19T13:12:06;10.80;;;9.80;;
11763;SDS011;5939;56.522;14.950;2022-08-19T13:14:35;10.10;;;9.27;;
11763;SDS011;5939;56.522;14.950;2022-08-19T13:17:01;10.47;;;9.57;;
11763;SDS011;5939;56.522;14.950;2022-08-19T13:19:26;10.67;;;9.70;;
11763;SDS011;5939;56.522;14.950;2022-08-19T13:21:53;10.47;;;9.57;;
11763;SDS011;5939;56.522;14.950;2022-08-19T13:24:20;10.07;;;9.17;;
11763;SDS011;5939;56.522;14.950;2022-08-19T13:26:46;11.07;;;9.90;;
11763;SDS011;5939;56.522;14.950;2022-08-19T13:29:12;9.77;;;8.87;;
11763;SDS011;5939;56.522;14.950;2022-08-19T13:31:57;10.27;;;9.37;;
11763;SDS011;5939;56.522;14.950;2022-08-19T13:34:41;9.97;;;9.07;;
11763;SDS011;5939;56.522;14.950;2022-08-19T13:37:07;9.73;;;8.93;;
11763;SDS011;5939;56.522;14.950;2022-08-19T13:39:33;10.50;;;9.23;;
11763;SDS011;5939;56.522;14.950;2022-08-19T13:42:00;10.20;;;9.27;;
11763;SDS011;5939;56.522;14.950;2022-08-19T13:44:27;10.23;;;8.77;;
11763;SDS011;5939;56.522;14.950;2022-08-19T13:47:03;10.97;;;9.40;;
11763;SDS011;5939;56.522;14.950;2022-08-19T13:49:34;9.93;;;9.00;;
11763;SDS011;5939;56.522;14.950;2022-08-19T13:52:01;10.27;;;9.20;;
11763;SDS011;5939;56.522;14.950;2022-08-19T13:54:28;9.93;;;8.97;;
11763;SDS011;5939;56.522;14.950;2022-08-19T13:56:53;10.40;;;9.37;;
11763;SDS011;5939;56.522;14.950;2022-08-19T13:59:19;10.77;;;9.70;;
11763;SDS011;5939;56.522;14.950;2022-08-19T14:01:45;10.40;;;9.23;;
11763;SDS011;5939;56.522;14.950;2022-08-19T14:04:10;11.13;;;9.30;;
11763;SDS011;5939;56.522;14.950;2022-08-19T14:06:36;9.23;;;8.20;;
11763;SDS011;5939;56.522;14.950;2022-08-19T14:09:02;10.73;;;8.93;;
11763;SDS011;5939;56.522;14.950;2022-08-19T14:11:29;14.27;;;9.30;;
11763;SDS011;5939;56.522;14.950;2022-08-19T14:13:55;11.03;;;8.87;;
11763;SDS011;5939;56.522;14.950;2022-08-19T14:16:21;10.20;;;8.57;;
11763;SDS011;5939;56.522;14.950;2022-08-19T14:18:46;9.50;;;8.50;;
11763;SDS011;5939;56.522;14.950;2022-08-19T14:21:16;9.67;;;8.20;;
11763;SDS011;5939;56.522;14.950;2022-08-19T14:23:45;10.60;;;9.30;;
11763;SDS011;5939;56.522;14.950;2022-08-19T14:26:13;9.10;;;8.20;;
11763;SDS011;5939;56.522;14.950;2022-08-19T14:28:40;12.13;;;8.53;;
11763;SDS011;5939;56.522;14.950;2022-08-19T14:31:07;9.53;;;8.17;;
11763;SDS011;5939;56.522;14.950;2022-08-19T14:33:34;10.00;;;7.17;;
11763;SDS011;5939;56.522;14.950;2022-08-19T14:36:00;9.23;;;7.87;;
11763;SDS011;5939;56.522;14.950;2022-08-19T14:38:25;8.70;;;7.83;;
11763;SDS011;5939;56.522;14.950;2022-08-19T14:40:51;9.97;;;8.07;;
11763;SDS011;5939;56.522;14.950;2022-08-19T14:43:17;9.57;;;8.60;;
11763;SDS011;5939;56.522;14.950;2022-08-19T14:45:43;8.80;;;7.90;;
11763;SDS011;5939;56.522;14.950;2022-08-19T14:48:09;8.27;;;7.50;;
11763;SDS011;5939;56.522;14.950;2022-08-19T14:50:35;8.63;;;6.97;;
11763;SDS011;5939;56.522;14.950;2022-08-19T14:53:06;8.50;;;7.70;;
11763;SDS011;5939;56.522;14.950;2022-08-19T14:55:33;7.97;;;7.27;;